Duvan, Russia
Current Conditions -  °F | °C
As of 9:00 PM on Friday 24 Oct 2014 (Local Time) from UWUU Reporting Station
Light Snow Light Snow  
Wind Chill:   Ceiling: 1000
Heat Index: 18°   Visibility: 6mi
Dew Point: 14°   Wind: 18mph
Humidity: 86%   Direction: 300°WNW
Pressure: 30"   Gusts: 27mph
Location:  55.7°N, 57.89°E
Report Text: UWUU 241600Z 30008G12MPS 9999 -SN OVC010 M08/M10 Q1016 32421050NOSIG RMK QFE750/1000
Loading
Personal Weather Stations






























Interactive Weather Map
Tropical Storm Tracking
New forecast layout! Learn more

10-Day Weather Forecast

Advertisements
Track Severe Weather on mobile